Главная страница
METAR-TAF:

METAR-TAF

Аэропорты :

Tuktoyaktuk, Северо-Западные Территории, Канада

широта: 69-27N, долгота: 133-01W, высота над уровнем моря: 5 м

Текущие метеонаблюдения

Эта сводка был подготовлена 36 минут назад, в 04:00 UTC
Ветер 5 Узел от юго-восточный
Температура -8°C
Влажность 85%
Давление 1014 hPa
Видимость: 24.1 км
небольшая облачность на высоте 1000 фута
небольшая облачность на высоте 9000 фута
Рассеянная облачность на высоте 25000 фута

METAR: CYUB 270400Z 14005KT 15SM FEW010 FEW090 BKN250 M08/M10 A2993 RMK ST1AC1CI7 ST TR AC TR WND ESTD SLP137

Время: 22:36 (04:36 UTC)

Прогноз

Эта сводка был подготовлена 3 часа и 58 минут назад, в 00:38 UTC
Прогноз действительный с 27-го 01 UTC до 27-го 05 UTC
Ветер 3 Узел переменных направлений
Видимость: 10 км
небольшая облачность на высоте 1500 фута
небольшая облачность на высоте 9000 фута

TAF: CYUB 270038Z 2701/2705 VRB03KT P6SM FEW015 FEW090 RMK NXT FCST WILL BE ISSUED AT 271445Z

Метеонаблюдения и прогнозы для более 4000 аэропортов (сводки METAR и TAF).

Имеющиеся станции представлены на карте желтыми и красными точками.

Чтобы увидеть название станции, наведите на нее мышь.

Затем щелкните, чтобы увидеть метеонаблюдения и метеопрогнозы.

Управление картой: чтобы увеличить масштаб, щелкните зеленые кнопки с черным крестиком; чтобы уменьшить масштаб, щелкните зеленую кнопку с тире; для просмотра соседних карт щелкайте зеленые стрелки.


METAR-TAF: